createdAt,value
2019-06-07T00:00:33.538Z,11.96
2019-06-07T00:02:46.993Z,11.91
2019-06-07T00:05:18.595Z,11.73
2019-06-07T00:07:45.534Z,11.48
2019-06-07T00:10:33.545Z,11.45
2019-06-07T00:12:45.135Z,11.49
2019-06-07T00:15:20.983Z,11.38
2019-06-07T00:17:44.766Z,11.44
2019-06-07T00:20:17.533Z,11.24
2019-06-07T00:22:44.436Z,11.55
2019-06-07T00:25:17.362Z,11.50
2019-06-07T00:27:43.529Z,11.45
2019-06-07T00:30:36.198Z,11.47
2019-06-07T00:32:43.080Z,11.54
2019-06-07T00:35:14.727Z,11.44
2019-06-07T00:37:42.174Z,11.29
2019-06-07T00:40:21.063Z,11.21
2019-06-07T00:42:41.179Z,11.31
2019-06-07T00:45:11.222Z,11.30
2019-06-07T00:47:40.099Z,11.33
2019-06-07T00:50:11.154Z,11.23
2019-06-07T00:53:14.090Z,11.19
2019-06-07T00:55:15.246Z,10.99
2019-06-07T00:57:42.619Z,10.86
2019-06-07T01:00:12.371Z,10.75
2019-06-07T01:02:41.102Z,10.81
2019-06-07T01:05:10.331Z,10.77
2019-06-07T01:07:38.778Z,10.70
2019-06-07T01:10:10.496Z,10.78
2019-06-07T01:12:38.914Z,10.75
2019-06-07T01:15:08.186Z,10.70
2019-06-07T01:17:50.195Z,10.53
2019-06-07T01:20:08.736Z,10.52
2019-06-07T01:22:37.173Z,10.52
2019-06-07T01:25:07.007Z,10.49
2019-06-07T01:27:35.411Z,10.49
2019-06-07T01:30:06.899Z,10.49
2019-06-07T01:32:35.328Z,10.48
2019-06-07T01:35:05.379Z,10.47
2019-06-07T01:37:33.801Z,10.45
2019-06-07T01:40:02.200Z,10.50
2019-06-07T01:42:31.123Z,10.55
2019-06-07T01:44:59.681Z,10.43
2019-06-07T01:47:31.635Z,10.30
2019-06-07T01:49:58.237Z,10.30
2019-06-07T01:52:26.842Z,10.19
2019-06-07T01:54:58.407Z,10.20
2019-06-07T01:57:38.444Z,10.20
2019-06-07T01:59:55.639Z,10.22
2019-06-07T02:02:28.023Z,10.21
2019-06-07T02:04:54.240Z,10.20
2019-06-07T02:07:25.830Z,10.15
2019-06-07T02:09:52.786Z,10.08
2019-06-07T02:12:28.028Z,10.12
2019-06-07T02:14:51.382Z,9.99
2019-06-07T02:17:20.376Z,9.98
2019-06-07T02:19:49.919Z,9.91
2019-06-07T02:22:18.345Z,9.85
2019-06-07T02:24:46.767Z,9.91
2019-06-07T02:27:15.207Z,10.01
2019-06-07T02:29:43.707Z,9.96
2019-06-07T02:32:12.111Z,9.99
2019-06-07T02:34:40.539Z,9.91
2019-06-07T02:37:08.952Z,9.87
2019-06-07T02:39:40.665Z,10.07
2019-06-07T02:42:07.539Z,10.13
2019-06-07T02:44:39.472Z,10.02
2019-06-07T02:47:06.204Z,10.07
2019-06-07T02:49:41.177Z,10.06
2019-06-07T02:52:04.894Z,10.13
2019-06-07T02:54:36.951Z,10.21
2019-06-07T02:57:03.446Z,10.20
2019-06-07T02:59:57.596Z,10.01
2019-06-07T03:02:02.139Z,9.88
2019-06-07T03:04:34.927Z,9.89
2019-06-07T03:07:02.813Z,9.90
2019-06-07T03:09:35.011Z,9.79
2019-06-07T03:12:03.889Z,9.83
2019-06-07T03:14:35.366Z,9.84
2019-06-07T03:17:13.090Z,9.88
2019-06-07T03:19:44.888Z,9.97
2019-06-07T03:22:13.327Z,10.08
2019-06-07T03:24:44.876Z,9.90
2019-06-07T03:27:36.291Z,9.90
2019-06-07T03:29:43.967Z,9.79
2019-06-07T03:32:12.422Z,9.72
2019-06-07T03:34:43.494Z,9.82
2019-06-07T03:37:10.957Z,9.71
2019-06-07T03:39:41.148Z,9.69
2019-06-07T03:42:09.691Z,10.15
2019-06-07T03:44:41.383Z,10.27
2019-06-07T03:47:08.294Z,10.40
2019-06-07T03:49:41.721Z,10.49
2019-06-07T03:52:06.878Z,10.39
2019-06-07T03:54:39.424Z,10.21
2019-06-07T03:57:05.469Z,10.06
2019-06-07T03:59:38.595Z,10.05
2019-06-07T04:02:04.060Z,10.07
2019-06-07T04:04:34.619Z,10.26
2019-06-07T04:07:02.653Z,10.40
2019-06-07T04:09:33.786Z,10.44
2019-06-07T04:12:01.203Z,10.54
2019-06-07T04:14:30.829Z,10.80
2019-06-07T04:16:59.708Z,10.74
2019-06-07T04:19:28.873Z,10.67
2019-06-07T04:21:57.913Z,10.70
2019-06-07T04:24:26.335Z,10.88
2019-06-07T04:26:54.754Z,10.64
2019-06-07T04:29:34.096Z,10.71
2019-06-07T04:31:53.295Z,10.87
2019-06-07T04:34:21.701Z,10.90
2019-06-07T04:36:59.053Z,11.26
2019-06-07T04:39:24.804Z,11.34
2019-06-07T04:41:55.168Z,11.38
2019-06-07T04:44:25.298Z,11.42
2019-06-07T04:46:57.316Z,11.17
2019-06-07T04:49:26.426Z,11.03
2019-06-07T04:51:56.957Z,11.09
2019-06-07T04:54:25.951Z,10.75
2019-06-07T04:56:54.412Z,10.74
2019-06-07T05:00:01.130Z,11.05
2019-06-07T05:01:53.020Z,11.47
2019-06-07T05:04:21.516Z,11.63
2019-06-07T05:06:49.934Z,12.04
2019-06-07T05:09:18.476Z,11.77
2019-06-07T05:11:46.899Z,12.18
2019-06-07T05:14:15.297Z,12.50
2019-06-07T05:16:44.517Z,12.52
2019-06-07T05:19:13.198Z,12.80
2019-06-07T05:22:02.074Z,12.80
2019-06-07T05:24:11.756Z,12.32
2019-06-07T05:26:42.681Z,12.53
2019-06-07T05:29:10.420Z,12.36
2019-06-07T05:31:42.383Z,12.34
2019-06-07T05:34:09.049Z,12.62
2019-06-07T05:36:39.827Z,12.76
2019-06-07T05:39:08.732Z,12.83
2019-06-07T05:41:40.727Z,12.95
2019-06-07T05:44:12.486Z,13.03
2019-06-07T05:46:38.603Z,13.11
2019-06-07T05:49:07.845Z,13.41
2019-06-07T05:51:38.095Z,13.05
2019-06-07T05:54:06.414Z,13.04
2019-06-07T05:56:35.863Z,13.60
2019-06-07T05:59:05.135Z,13.48
2019-06-07T06:02:00.234Z,13.63
2019-06-07T06:04:04.972Z,13.85
2019-06-07T06:06:33.892Z,13.59
2019-06-07T06:09:13.206Z,13.78
2019-06-07T06:11:45.727Z,13.82
2019-06-07T06:14:08.138Z,13.82
2019-06-07T06:16:32.867Z,13.92
2019-06-07T06:19:01.314Z,14.16
2019-06-07T06:21:29.743Z,14.13
2019-06-07T06:23:58.889Z,14.86
2019-06-07T06:26:27.304Z,13.84
2019-06-07T06:28:56.352Z,13.67
2019-06-07T06:31:24.707Z,13.71
2019-06-07T06:33:53.111Z,13.72
2019-06-07T06:36:22.036Z,13.94
2019-06-07T06:38:51.524Z,13.85
2019-06-07T06:41:21.087Z,14.07
2019-06-07T06:43:52.366Z,14.15
2019-06-07T06:46:37.306Z,14.35
2019-06-07T06:48:54.702Z,14.13
2019-06-07T06:51:20.299Z,14.30
2019-06-07T06:53:51.289Z,14.35
2019-06-07T06:56:18.915Z,14.52
2019-06-07T06:59:31.898Z,14.36
2019-06-07T07:01:17.546Z,14.27
2019-06-07T07:04:09.180Z,14.52
2019-06-07T07:06:26.209Z,14.63
2019-06-07T07:08:51.401Z,15.12
2019-06-07T07:11:23.096Z,15.04
2019-06-07T07:13:56.181Z,14.99
2019-06-07T07:16:21.182Z,15.24
2019-06-07T07:18:52.915Z,15.30
2019-06-07T07:21:19.715Z,15.18
2019-06-07T07:24:12.323Z,15.14
2019-06-07T07:26:18.375Z,15.17
2019-06-07T07:28:53.973Z,15.16
2019-06-07T07:31:16.870Z,15.04
2019-06-07T07:34:24.066Z,15.15
2019-06-07T07:36:35.601Z,15.11
2019-06-07T07:38:51.731Z,15.37
2019-06-07T07:41:16.136Z,15.60
2019-06-07T07:43:51.810Z,15.75
2019-06-07T07:46:30.513Z,15.69
2019-06-07T07:48:46.077Z,15.79
2019-06-07T07:51:14.606Z,15.82
2019-06-07T07:53:50.619Z,15.62
2019-06-07T07:56:13.175Z,15.84
2019-06-07T07:58:41.595Z,16.04
2019-06-07T08:01:11.343Z,16.86
2019-06-07T08:03:39.924Z,15.99
2019-06-07T08:06:08.379Z,16.39
2019-06-07T08:08:36.847Z,16.26
2019-06-07T08:11:05.328Z,16.75
2019-06-07T08:13:33.773Z,16.46
2019-06-07T08:16:09.819Z,16.16
2019-06-07T08:18:32.444Z,16.65
2019-06-07T08:21:21.338Z,16.20
2019-06-07T08:23:31.021Z,16.49
2019-06-07T08:26:01.137Z,16.29
2019-06-07T08:28:29.823Z,16.84
2019-06-07T08:31:06.031Z,17.01
2019-06-07T08:33:28.450Z,17.00
2019-06-07T08:36:10.371Z,16.89
2019-06-07T08:38:38.890Z,16.81
2019-06-07T08:41:10.728Z,16.87
2019-06-07T08:43:27.277Z,16.78
2019-06-07T08:46:01.580Z,17.06
2019-06-07T08:48:28.253Z,17.23
2019-06-07T08:51:00.715Z,17.32
2019-06-07T08:53:26.087Z,17.12
2019-06-07T08:56:04.410Z,17.29
2019-06-07T08:58:24.624Z,17.55
2019-06-07T09:00:55.514Z,17.56
2019-06-07T09:03:23.266Z,17.43
2019-06-07T09:05:53.368Z,17.65
2019-06-07T09:08:30.090Z,17.80
2019-06-07T09:10:54.064Z,17.99
2019-06-07T09:13:22.408Z,18.75
2019-06-07T09:15:50.851Z,18.73
2019-06-07T09:18:43.013Z,18.16
2019-06-07T09:20:49.869Z,18.68
2019-06-07T09:23:18.477Z,18.68
2019-06-07T09:25:57.443Z,18.77
2019-06-07T09:28:20.143Z,18.46
2019-06-07T09:30:47.337Z,18.95
2019-06-07T09:33:15.764Z,18.99
2019-06-07T09:35:44.467Z,18.61
2019-06-07T09:38:24.904Z,19.10
2019-06-07T09:40:43.045Z,18.83
2019-06-07T09:45:41.721Z,19.04
2019-06-07T09:48:15.448Z,19.35
2019-06-07T09:50:40.317Z,19.41
2019-06-07T09:53:21.170Z,19.08
2019-06-07T09:55:38.846Z,19.39
2019-06-07T09:58:48.630Z,19.52
2019-06-07T10:00:41.634Z,19.31
2019-06-07T10:03:17.687Z,19.11
2019-06-07T10:05:37.685Z,19.29
2019-06-07T10:08:25.669Z,19.34
2019-06-07T10:10:36.288Z,19.05
2019-06-07T10:13:06.492Z,19.30
2019-06-07T10:15:35.036Z,19.58
2019-06-07T10:18:04.800Z,19.46
2019-06-07T10:20:33.366Z,19.23
2019-06-07T10:23:01.779Z,19.93
2019-06-07T10:25:30.588Z,19.84
2019-06-07T10:28:00.064Z,19.75
2019-06-07T10:30:28.673Z,20.36
2019-06-07T10:32:57.165Z,19.89
2019-06-07T10:35:25.600Z,20.13
2019-06-07T10:37:54.027Z,20.44
2019-06-07T10:40:22.514Z,20.28
2019-06-07T10:42:50.939Z,20.10
2019-06-07T10:45:19.466Z,20.43
2019-06-07T10:47:47.894Z,19.99
2019-06-07T10:50:17.531Z,20.13
2019-06-07T10:52:45.950Z,20.28
2019-06-07T10:55:14.650Z,21.20
2019-06-07T10:57:43.129Z,21.11
2019-06-07T11:00:13.488Z,21.05
2019-06-07T11:02:42.217Z,20.51
2019-06-07T11:05:12.344Z,21.03
2019-06-07T11:07:40.848Z,21.40
2019-06-07T11:10:16.657Z,21.35
2019-06-07T11:12:40.053Z,21.47
2019-06-07T11:15:08.999Z,21.77
2019-06-07T11:17:37.490Z,21.10
2019-06-07T11:20:10.336Z,20.82
2019-06-07T11:22:39.010Z,21.65
2019-06-07T11:25:09.231Z,21.27
2019-06-07T11:27:38.433Z,21.70
2019-06-07T11:30:08.371Z,21.52
2019-06-07T11:32:36.995Z,21.84
2019-06-07T11:35:08.475Z,21.91
2019-06-07T11:37:37.024Z,22.15
2019-06-07T11:40:28.909Z,22.38
2019-06-07T11:42:40.276Z,22.36
2019-06-07T11:45:10.513Z,21.56
2019-06-07T11:47:39.693Z,21.46
2019-06-07T11:50:09.457Z,21.78
2019-06-07T11:52:38.255Z,21.50
2019-06-07T11:55:09.199Z,21.10
2019-06-07T11:57:37.980Z,21.17
2019-06-07T12:00:14.030Z,21.33
2019-06-07T12:02:42.653Z,21.53
2019-06-07T12:05:14.869Z,21.67
2019-06-07T12:07:41.427Z,21.56
2019-06-07T12:10:10.789Z,21.65
2019-06-07T12:12:39.379Z,21.23
2019-06-07T12:15:10.607Z,21.06
2019-06-07T12:17:39.372Z,21.35
2019-06-07T12:20:09.301Z,21.51
2019-06-07T12:22:38.403Z,21.65
2019-06-07T12:25:07.681Z,21.58
2019-06-07T12:27:36.090Z,21.15
2019-06-07T12:30:15.409Z,21.11
2019-06-07T12:32:39.545Z,21.01
2019-06-07T12:35:08.475Z,21.09
2019-06-07T12:37:43.573Z,21.20
2019-06-07T12:40:08.614Z,21.37
2019-06-07T12:42:37.255Z,21.35
2019-06-07T12:45:07.729Z,21.31
2019-06-07T12:47:36.132Z,21.71
2019-06-07T12:50:06.716Z,21.44
2019-06-07T12:52:35.116Z,21.68
2019-06-07T12:55:04.968Z,21.98
2019-06-07T12:57:33.415Z,22.03
2019-06-07T13:00:02.020Z,22.25
2019-06-07T13:02:31.708Z,22.29
2019-06-07T13:05:04.327Z,22.18
2019-06-07T13:07:30.317Z,22.17
2019-06-07T13:09:58.748Z,21.68
2019-06-07T13:12:28.219Z,21.29
2019-06-07T13:14:56.814Z,21.39
2019-06-07T13:17:25.252Z,20.84
2019-06-07T13:19:53.698Z,21.15
2019-06-07T13:22:22.363Z,21.21
2019-06-07T13:24:50.862Z,21.25
2019-06-07T13:27:20.365Z,21.18
2019-06-07T13:29:48.780Z,21.29
2019-06-07T13:32:17.500Z,21.54
2019-06-07T13:34:45.977Z,21.86
2019-06-07T13:37:14.399Z,21.73
2019-06-07T13:39:42.845Z,21.52
2019-06-07T13:42:11.257Z,21.63
2019-06-07T13:44:39.698Z,22.16
2019-06-07T13:47:08.225Z,22.16
2019-06-07T13:49:36.632Z,22.10
2019-06-07T13:52:05.145Z,22.03
2019-06-07T13:54:33.643Z,21.85
2019-06-07T13:57:03.258Z,22.04
2019-06-07T13:59:32.134Z,22.44
2019-06-07T14:02:00.780Z,22.57
2019-06-07T14:04:29.256Z,22.84
2019-06-07T14:06:57.661Z,22.60
2019-06-07T14:09:27.442Z,22.41
2019-06-07T14:11:56.102Z,22.74
2019-06-07T14:14:25.585Z,23.13
2019-06-07T14:16:54.773Z,22.98
2019-06-07T14:19:24.506Z,23.73
2019-06-07T14:21:53.180Z,23.48
2019-06-07T14:24:22.950Z,23.20
2019-06-07T14:27:06.531Z,23.42
2019-06-07T14:29:37.458Z,22.95
2019-06-07T14:32:08.064Z,23.12
2019-06-07T14:34:37.534Z,23.69
2019-06-07T14:37:08.146Z,23.88
2019-06-07T14:39:36.632Z,23.40
2019-06-07T14:42:09.720Z,23.35
2019-06-07T14:44:35.392Z,23.71
2019-06-07T14:47:03.911Z,23.79
2019-06-07T14:49:32.893Z,23.20
2019-06-07T14:52:02.585Z,23.42
2019-06-07T14:54:33.624Z,23.16
2019-06-07T14:57:03.392Z,22.83
2019-06-07T14:59:32.741Z,23.01
2019-06-07T15:02:01.322Z,22.85
2019-06-07T15:04:30.731Z,22.84
2019-06-07T15:06:59.274Z,22.75
2019-06-07T15:09:29.083Z,22.77
2019-06-07T15:11:57.590Z,22.66
2019-06-07T15:14:27.349Z,22.64
2019-06-07T15:16:55.881Z,22.85
2019-06-07T15:19:24.507Z,23.40
2019-06-07T15:21:52.915Z,23.27
2019-06-07T15:24:21.361Z,23.56
2019-06-07T15:26:49.859Z,23.40
2019-06-07T15:29:18.314Z,23.43
2019-06-07T15:31:46.702Z,23.22
2019-06-07T15:34:15.114Z,22.95
2019-06-07T15:36:43.575Z,22.88
2019-06-07T15:39:11.998Z,22.81
2019-06-07T15:41:40.422Z,22.69
2019-06-07T15:44:08.833Z,22.67
2019-06-07T15:46:37.940Z,22.53
2019-06-07T15:49:06.661Z,22.33
2019-06-07T15:51:36.566Z,22.31
2019-06-07T15:54:05.800Z,22.49
2019-06-07T15:56:34.680Z,22.45
2019-06-07T15:59:03.226Z,22.53
2019-06-07T16:01:31.625Z,22.52
2019-06-07T16:04:00.101Z,22.95
2019-06-07T16:06:28.571Z,22.95
2019-06-07T16:08:57.028Z,22.70
2019-06-07T16:11:25.523Z,22.25
2019-06-07T16:13:53.963Z,21.54
2019-06-07T16:16:22.377Z,21.42
2019-06-07T16:18:50.883Z,21.14
2019-06-07T16:21:19.344Z,21.16
2019-06-07T16:23:47.827Z,20.95
2019-06-07T16:26:16.331Z,20.71
2019-06-07T16:28:44.829Z,20.56
2019-06-07T16:31:13.235Z,20.54
2019-06-07T16:33:43.029Z,20.44
2019-06-07T16:36:11.647Z,20.44
2019-06-07T16:38:40.195Z,20.33
2019-06-07T16:41:08.539Z,20.27
2019-06-07T16:43:37.281Z,20.13
2019-06-07T16:46:07.042Z,20.11
2019-06-07T16:48:36.792Z,19.28
2019-06-07T16:51:05.391Z,19.28
2019-06-07T16:53:33.784Z,19.19
2019-06-07T16:56:02.196Z,18.63
2019-06-07T16:58:30.608Z,18.32
2019-06-07T17:00:59.010Z,18.38
2019-06-07T17:03:27.456Z,18.01
2019-06-07T17:05:55.885Z,18.20
2019-06-07T17:08:24.383Z,17.88
2019-06-07T17:10:52.857Z,17.88
2019-06-07T17:13:32.934Z,17.75
2019-06-07T17:15:51.540Z,17.58
2019-06-07T17:18:19.964Z,17.67
2019-06-07T17:20:49.449Z,17.67
2019-06-07T17:23:18.083Z,17.54
2019-06-07T17:25:47.527Z,17.63
2019-06-07T17:28:16.213Z,17.42
2019-06-07T17:30:46.097Z,17.10
2019-06-07T17:33:14.619Z,17.25
2019-06-07T17:35:44.651Z,17.12
2019-06-07T17:38:13.186Z,17.03
2019-06-07T17:40:42.727Z,17.21
2019-06-07T17:43:11.217Z,16.97
2019-06-07T17:45:39.635Z,16.91
2019-06-07T17:48:08.214Z,16.84
2019-06-07T17:50:36.628Z,17.09
2019-06-07T17:53:05.198Z,17.27
2019-06-07T17:55:33.904Z,17.22
2019-06-07T17:58:02.325Z,17.07
2019-06-07T18:00:36.594Z,17.12
2019-06-07T18:03:05.013Z,17.06
2019-06-07T18:05:34.041Z,16.76
2019-06-07T18:08:02.684Z,16.66
2019-06-07T18:10:36.751Z,16.68
2019-06-07T18:13:05.860Z,16.62
2019-06-07T18:15:42.201Z,16.62
2019-06-07T18:18:10.799Z,16.44
2019-06-07T18:20:39.835Z,16.40
2019-06-07T18:23:08.685Z,16.38
2019-06-07T18:25:37.172Z,16.44
2019-06-07T18:28:05.903Z,16.28
2019-06-07T18:30:34.473Z,16.35
2019-06-07T18:33:02.923Z,16.30
2019-06-07T18:35:31.353Z,16.27
2019-06-07T18:37:59.781Z,16.31
2019-06-07T18:40:28.269Z,16.37
2019-06-07T18:42:56.690Z,16.31
2019-06-07T18:45:25.134Z,16.27
2019-06-07T18:47:53.873Z,16.29
2019-06-07T18:50:22.276Z,16.43
2019-06-07T18:52:50.897Z,16.56
2019-06-07T18:55:19.805Z,16.46
2019-06-07T18:57:48.223Z,16.62
2019-06-07T19:00:18.833Z,16.40
2019-06-07T19:02:47.695Z,16.44
2019-06-07T19:05:17.693Z,16.54
2019-06-07T19:07:46.114Z,16.44
2019-06-07T19:10:16.068Z,16.57
2019-06-07T19:12:44.503Z,16.52
2019-06-07T19:15:14.957Z,16.61
2019-06-07T19:17:43.381Z,16.49
2019-06-07T19:20:13.038Z,16.58
2019-06-07T19:22:41.906Z,16.67
2019-06-07T19:25:11.172Z,16.55
2019-06-07T19:27:39.630Z,16.70
2019-06-07T19:30:10.855Z,16.65
2019-06-07T19:32:39.302Z,16.66
2019-06-07T19:35:08.375Z,16.71
2019-06-07T19:37:36.875Z,16.73
2019-06-07T19:40:08.831Z,16.76
2019-06-07T19:42:37.224Z,16.53
2019-06-07T19:45:29.167Z,16.53
2019-06-07T19:47:38.329Z,16.43
2019-06-07T19:50:08.097Z,16.36
2019-06-07T19:52:36.685Z,16.60
2019-06-07T19:55:09.833Z,16.51
2019-06-07T19:57:38.516Z,16.48
2019-06-07T20:00:14.078Z,16.36
2019-06-07T20:02:39.062Z,16.27
2019-06-07T20:05:10.566Z,16.32
2019-06-07T20:07:39.001Z,16.27
2019-06-07T20:10:07.556Z,16.18
2019-06-07T20:12:35.964Z,16.16
2019-06-07T20:15:27.234Z,16.16
2019-06-07T20:17:37.860Z,16.19
2019-06-07T20:20:08.770Z,15.82
2019-06-07T20:22:37.410Z,16.06
2019-06-07T20:25:07.172Z,16.03
2019-06-07T20:27:35.571Z,16.03
2019-06-07T20:30:09.009Z,15.94
2019-06-07T20:32:37.420Z,15.83
2019-06-07T20:35:08.262Z,16.03
2019-06-07T20:37:37.216Z,15.95
2019-06-07T20:40:23.529Z,16.01
2019-06-07T20:42:40.179Z,15.92
2019-06-07T20:45:08.872Z,15.71
2019-06-07T20:47:37.309Z,15.74
2019-06-07T20:50:09.139Z,15.77
2019-06-07T20:52:37.619Z,15.59
2019-06-07T20:55:09.098Z,15.57
2019-06-07T20:57:37.950Z,15.50
2019-06-07T21:00:20.682Z,15.29
2019-06-07T21:02:39.918Z,15.40
2019-06-07T21:05:09.778Z,15.45
2019-06-07T21:07:38.512Z,15.31
2019-06-07T21:10:10.874Z,15.35
2019-06-07T21:12:39.447Z,15.31
2019-06-07T21:15:12.779Z,15.33
2019-06-07T21:17:40.232Z,15.36
2019-06-07T21:20:13.652Z,15.24
2019-06-07T21:22:39.850Z,15.34
2019-06-07T21:25:09.554Z,15.30
2019-06-07T21:27:38.271Z,15.22
2019-06-07T21:30:11.740Z,15.37
2019-06-07T21:32:40.207Z,15.33
2019-06-07T21:35:10.370Z,15.36
2019-06-07T21:37:38.980Z,15.27
2019-06-07T21:40:08.505Z,15.28
2019-06-07T21:42:37.595Z,15.40
2019-06-07T21:45:07.856Z,15.41
2019-06-07T21:47:37.724Z,15.25
2019-06-07T21:50:08.681Z,15.32
2019-06-07T21:52:37.649Z,15.39
2019-06-07T21:55:07.224Z,15.41
2019-06-07T21:57:36.025Z,15.51
2019-06-07T22:00:09.248Z,15.60
2019-06-07T22:02:37.754Z,15.51
2019-06-07T22:05:07.720Z,15.49
2019-06-07T22:07:36.335Z,15.47
2019-06-07T22:10:07.995Z,15.41
2019-06-07T22:12:36.670Z,15.52
2019-06-07T22:15:27.360Z,15.54
2019-06-07T22:17:38.712Z,15.61
2019-06-07T22:20:08.908Z,15.51
2019-06-07T22:22:39.056Z,15.54
2019-06-07T22:25:09.178Z,15.61
2019-06-07T22:27:38.155Z,15.67
2019-06-07T22:30:08.715Z,15.64
2019-06-07T22:32:37.928Z,15.73
2019-06-07T22:35:07.346Z,15.77
2019-06-07T22:37:36.108Z,15.76
2019-06-07T22:40:10.722Z,15.69
2019-06-07T22:42:39.212Z,15.75
2019-06-07T22:45:10.822Z,15.81
2019-06-07T22:47:39.042Z,15.83
2019-06-07T22:50:10.443Z,15.83
2019-06-07T22:52:39.239Z,15.90
2019-06-07T22:55:10.270Z,15.89
2019-06-07T22:57:58.476Z,15.77
2019-06-07T23:00:29.408Z,15.90
2019-06-07T23:02:57.906Z,15.93
2019-06-07T23:05:26.308Z,15.88
2019-06-07T23:07:54.785Z,15.91
2019-06-07T23:10:23.361Z,15.92
2019-06-07T23:12:51.781Z,15.88
2019-06-07T23:15:20.855Z,15.92
2019-06-07T23:17:49.402Z,15.88
2019-06-07T23:20:18.261Z,15.88
2019-06-07T23:22:46.794Z,15.87
2019-06-07T23:25:20.137Z,15.90
2019-06-07T23:27:46.222Z,15.93
2019-06-07T23:30:16.500Z,15.89
2019-06-07T23:32:45.103Z,15.92
2019-06-07T23:35:15.140Z,15.78
2019-06-07T23:37:43.567Z,15.83
2019-06-07T23:40:13.148Z,15.77
2019-06-07T23:42:41.609Z,15.82
2019-06-07T23:45:11.872Z,15.84
2019-06-07T23:47:40.146Z,15.71
2019-06-07T23:50:09.702Z,15.62
2019-06-07T23:52:38.635Z,15.67
2019-06-07T23:55:07.288Z,15.60
2019-06-07T23:57:35.730Z,15.64
